Time;durP1;ratioP1;P1;durP2;ratioP2;P2;SDS_P1;SDS_P2;PMS_P1;PMS_P2;Temp;Humidity;BMP_temperature;BMP_pressure;BME280_temperature;BME280_humidity;BME280_pressure;Samples;Min_cycle;Max_cycle;Signal;HPM_P1;HPM_P2
2023/06/22 00:00:52;;;;;;;7.85;4.20;;;;;;;22.30;61.87;101776.16;5054736;28;20159;-68
2023/06/22 00:03:19;;;;;;;7.53;4.50;;;;;;;22.17;62.18;101766.56;5054531;28;20108;-68
2023/06/22 00:05:45;;;;;;;7.00;4.47;;;;;;;22.04;61.60;101774.00;5054714;28;20033;-68
2023/06/22 00:08:11;;;;;;;7.55;4.60;;;;;;;21.98;61.84;101761.59;5054509;28;20170;-68
2023/06/22 00:10:36;;;;;;;6.45;4.38;;;;;;;22.06;62.19;101761.41;5054593;28;20029;-68
2023/06/22 00:13:02;;;;;;;7.10;4.63;;;;;;;22.00;62.43;101765.09;5054446;28;20032;-68
2023/06/22 00:15:27;;;;;;;7.20;4.57;;;;;;;21.99;62.57;101775.91;5036773;28;20037;-69
2023/06/22 00:17:53;;;;;;;8.30;5.07;;;;;;;21.98;62.12;101775.03;5054447;28;20032;-68
2023/06/22 00:20:18;;;;;;;7.57;4.75;;;;;;;22.01;62.02;101768.69;5054438;28;20083;-68
2023/06/22 00:22:44;;;;;;;6.70;4.97;;;;;;;21.98;62.41;101771.47;5054576;28;20029;-68
2023/06/22 00:25:10;;;;;;;7.60;5.20;;;;;;;21.93;62.85;101776.06;5036870;28;20075;-68
2023/06/22 00:27:36;;;;;;;7.03;5.32;;;;;;;21.94;62.86;101769.75;5054273;28;20493;-68
2023/06/22 00:30:03;;;;;;;7.43;5.22;;;;;;;21.98;62.44;101774.16;5053663;28;20060;-68
2023/06/22 00:32:28;;;;;;;9.07;4.78;;;;;;;21.98;62.63;101774.16;5053980;28;20025;-67
2023/06/22 00:34:53;;;;;;;7.32;4.90;;;;;;;22.02;62.92;101772.28;5054252;28;20466;-68
2023/06/22 00:37:19;;;;;;;6.75;4.90;;;;;;;21.88;63.24;101777.94;5053767;28;20128;-68
2023/06/22 00:39:44;;;;;;;8.45;5.30;;;;;;;21.82;63.59;101772.72;5053997;28;20049;-68
2023/06/22 00:42:10;;;;;;;9.60;5.50;;;;;;;21.74;63.38;101768.38;5058007;28;20034;-67
2023/06/22 00:44:36;;;;;;;9.50;5.55;;;;;;;21.75;63.10;101763.88;5059791;28;20074;-68
2023/06/22 00:47:02;;;;;;;7.65;5.88;;;;;;;21.70;62.78;101761.28;5059767;28;20032;-68
2023/06/22 00:49:28;;;;;;;9.05;5.82;;;;;;;21.61;63.31;101768.66;5057111;28;20055;-68
2023/06/22 00:51:54;;;;;;;7.38;5.88;;;;;;;21.58;63.26;101761.53;5059274;28;20032;-68
2023/06/22 00:54:24;;;;;;;9.20;5.53;;;;;;;21.54;63.62;101765.22;5054460;28;20021;-68
2023/06/22 00:56:54;;;;;;;10.52;5.70;;;;;;;21.43;63.75;101765.41;5054337;28;20040;-68
2023/06/22 00:59:20;;;;;;;8.25;5.45;;;;;;;21.40;64.13;101759.19;5054669;28;20071;-68
2023/06/22 01:01:46;;;;;;;8.98;5.90;;;;;;;21.39;63.94;101762.81;5055959;28;20055;-68
2023/06/22 01:04:12;;;;;;;8.80;5.80;;;;;;;21.32;64.24;101762.03;5060447;28;20390;-68
2023/06/22 01:06:50;;;;;;;9.48;6.25;;;;;;;21.34;63.87;101751.28;5059543;28;20084;-68
2023/06/22 01:09:31;;;;;;;10.82;6.45;;;;;;;21.35;63.99;101750.34;5053690;28;20033;-68
2023/06/22 01:12:07;;;;;;;8.77;6.40;;;;;;;21.29;63.94;101745.94;5053476;28;20025;-68
2023/06/22 01:14:43;;;;;;;8.05;6.05;;;;;;;21.30;64.06;101749.53;5035757;28;20029;-68
2023/06/22 01:17:12;;;;;;;7.78;5.97;;;;;;;21.35;64.33;101751.22;5053157;28;20071;-68
2023/06/22 01:19:46;;;;;;;9.18;5.22;;;;;;;21.32;64.56;101753.97;5053523;28;20029;-68
2023/06/22 01:22:16;;;;;;;8.27;5.40;;;;;;;21.35;64.39;101753.03;5053236;28;20041;-68
2023/06/22 01:24:48;;;;;;;9.43;5.97;;;;;;;21.24;64.70;101761.25;5053482;28;20464;-68
2023/06/22 01:27:32;;;;;;;8.68;5.80;;;;;;;21.21;64.46;101748.78;5053151;28;20044;-68
2023/06/22 01:30:00;;;;;;;7.75;6.10;;;;;;;21.13;65.03;101764.16;5053435;28;20375;-68
2023/06/22 01:32:34;;;;;;;7.70;6.43;;;;;;;21.02;65.41;101763.47;5052726;28;20037;-68
2023/06/22 01:35:03;;;;;;;9.90;6.13;;;;;;;21.09;65.71;101761.56;5053086;28;20078;-68
2023/06/22 01:37:31;;;;;;;7.35;5.88;;;;;;;21.05;66.03;101759.84;5052885;28;20049;-68
2023/06/22 01:39:58;;;;;;;7.35;5.53;;;;;;;21.05;66.27;101760.72;5052689;28;20439;-68
2023/06/22 01:42:27;;;;;;;7.95;6.13;;;;;;;21.05;66.34;101759.84;5052090;28;20033;-68
2023/06/22 01:44:53;;;;;;;10.45;6.45;;;;;;;21.11;65.99;101754.34;5052880;28;20029;-68
2023/06/22 01:47:21;;;;;;;9.52;6.75;;;;;;;21.09;65.74;101748.13;5053097;28;20025;-68
2023/06/22 01:49:47;;;;;;;10.48;6.50;;;;;;;21.18;66.03;101742.56;5052868;28;20074;-67
2023/06/22 01:52:13;;;;;;;13.98;7.03;;;;;;;21.17;66.09;101733.63;5052851;28;20017;-68
2023/06/22 01:54:39;;;;;;;12.45;7.15;;;;;;;21.16;65.87;101734.53;5052884;28;20029;-68
2023/06/22 01:57:05;;;;;;;9.52;7.20;;;;;;;20.98;66.60;101741.16;5052843;28;20029;-68
2023/06/22 01:59:49;;;;;;;11.63;7.47;;;;;;;21.07;66.11;101742.78;5052865;28;20036;-68
2023/06/22 02:02:19;;;;;;;10.65;7.50;;;;;;;21.01;66.43;101740.19;5052770;28;20247;-68
2023/06/22 02:04:54;;;;;;;9.82;7.40;;;;;;;21.08;66.51;101747.25;5052811;28;20020;-68
2023/06/22 02:07:23;;;;;;;11.27;7.70;;;;;;;21.03;66.82;101743.75;5052825;28;20029;-68
2023/06/22 02:09:52;;;;;;;11.85;7.45;;;;;;;21.12;66.61;101740.00;5052656;28;20500;-68
2023/06/22 02:12:22;;;;;;;11.15;7.80;;;;;;;21.06;66.61;101737.41;5052704;28;20505;-68
2023/06/22 02:14:48;;;;;;;9.95;7.75;;;;;;;21.03;66.64;101741.06;5052641;28;20526;-68
2023/06/22 02:17:14;;;;;;;13.18;7.65;;;;;;;20.98;67.20;101741.16;5052795;28;20017;-68
2023/06/22 02:19:43;;;;;;;9.52;7.78;;;;;;;20.99;67.77;101747.41;5052376;28;20043;-68
2023/06/22 02:22:08;;;;;;;10.98;7.75;;;;;;;20.90;68.36;101745.78;5052644;28;20025;-68
2023/06/22 02:24:34;;;;;;;10.02;7.60;;;;;;;20.86;67.92;101736.00;5052810;28;20075;-68
2023/06/22 02:27:00;;;;;;;10.73;6.78;;;;;;;20.84;68.65;101744.97;5052534;28;20112;-68
2023/06/22 02:29:27;;;;;;;11.90;7.80;;;;;;;20.85;68.33;101738.69;5052375;28;20029;-68
2023/06/22 02:31:52;;;;;;;10.25;7.35;;;;;;;20.91;68.07;101742.16;5052437;28;20040;-67
2023/06/22 02:34:18;;;;;;;9.85;7.32;;;;;;;20.87;68.09;101739.56;5052363;28;20482;-68
2023/06/22 02:36:51;;;;;;;11.20;7.80;;;;;;;20.77;68.32;101720.03;5052272;28;20049;-68
2023/06/22 02:39:24;;;;;;;10.93;7.50;;;;;;;20.77;68.50;101717.34;5052687;28;20037;-68
2023/06/22 02:41:54;;;;;;;14.60;8.13;;;;;;;20.74;68.55;101720.97;5052718;28;20032;-68
2023/06/22 02:44:20;;;;;;;11.30;7.88;;;;;;;20.67;68.88;101716.59;5052438;28;20103;-68
2023/06/22 02:46:47;;;;;;;10.88;8.43;;;;;;;20.67;68.99;101724.66;5052031;28;20025;-68
2023/06/22 02:49:12;;;;;;;12.60;8.85;;;;;;;20.64;68.89;101718.44;5052345;28;20029;-68
2023/06/22 02:51:45;;;;;;;11.40;8.52;;;;;;;20.75;68.21;101712.00;5052382;28;20379;-68
2023/06/22 02:54:10;;;;;;;12.60;8.60;;;;;;;20.81;68.24;101712.78;5061536;28;20057;-68
2023/06/22 02:56:36;;;;;;;13.52;9.23;;;;;;;20.66;68.97;101714.84;5062861;28;20041;-68
2023/06/22 02:59:02;;;;;;;10.77;8.48;;;;;;;20.48;69.51;101710.66;5046516;28;20084;-68
2023/06/22 03:01:30;;;;;;;11.75;8.48;;;;;;;20.63;69.48;101712.19;5064577;28;20033;-68
2023/06/22 03:03:56;;;;;;;12.27;8.60;;;;;;;20.66;68.99;101712.16;5059976;28;20462;-68
2023/06/22 03:06:28;;;;;;;10.55;8.43;;;;;;;20.64;68.63;101715.78;5056505;28;20479;-68
2023/06/22 03:08:57;;;;;;;11.70;8.85;;;;;;;20.71;68.86;101702.22;5056162;28;20033;-68
2023/06/22 03:11:22;;;;;;;10.32;8.57;;;;;;;20.65;68.79;101702.34;5055778;28;20032;-68
2023/06/22 03:13:48;;;;;;;11.00;8.93;;;;;;;20.65;68.63;101698.75;5038100;28;20390;-68
2023/06/22 03:16:13;;;;;;;12.55;8.90;;;;;;;20.41;69.75;101690.16;5055895;28;20053;-68
2023/06/22 03:18:38;;;;;;;14.07;8.32;;;;;;;20.35;69.94;101694.75;5055701;28;20445;-68
2023/06/22 03:21:04;;;;;;;10.90;8.13;;;;;;;20.32;70.06;101687.63;5055676;28;20025;-68
2023/06/22 03:23:29;;;;;;;9.63;8.20;;;;;;;20.38;69.81;101689.31;5055526;28;20025;-68
2023/06/22 03:25:55;;;;;;;12.55;8.23;;;;;;;20.44;69.83;101684.75;5055360;28;20032;-68
2023/06/22 03:28:21;;;;;;;13.48;8.30;;;;;;;20.43;69.82;101680.31;5055181;28;20141;-68
2023/06/22 03:30:46;;;;;;;13.13;9.30;;;;;;;20.36;69.78;101677.75;5055272;28;20112;-68
2023/06/22 03:33:12;;;;;;;10.80;8.73;;;;;;;20.25;69.88;101684.16;5055038;28;20486;-68
2023/06/22 03:35:38;;;;;;;12.82;9.27;;;;;;;20.17;70.58;101690.53;5055044;28;20061;-68
2023/06/22 03:38:03;;;;;;;13.27;8.80;;;;;;;20.06;71.17;101689.84;5055386;28;20067;-68
2023/06/22 03:40:29;;;;;;;16.75;9.02;;;;;;;20.15;71.16;101687.00;5055133;28;20431;-68
2023/06/22 03:42:55;;;;;;;13.15;9.80;;;;;;;20.01;71.57;101673.81;5055265;28;20544;-68
2023/06/22 03:45:20;;;;;;;12.40;9.07;;;;;;;19.96;71.57;101676.56;5020649;28;20486;-68
2023/06/22 03:47:45;;;;;;;11.52;9.73;;;;;;;20.00;71.89;101680.97;5037002;28;20102;-68
2023/06/22 03:50:11;;;;;;;11.55;9.75;;;;;;;19.95;72.38;101681.94;5055105;28;20437;-68
2023/06/22 03:52:36;;;;;;;12.82;9.50;;;;;;;19.90;72.48;101673.06;5055043;28;20031;-68
2023/06/22 03:55:02;;;;;;;13.27;9.73;;;;;;;19.95;72.43;101676.56;5054985;28;20037;-68
2023/06/22 03:57:27;;;;;;;11.43;9.80;;;;;;;19.95;72.48;101671.19;5054698;28;20025;-68
2023/06/22 03:59:56;;;;;;;13.13;10.48;;;;;;;19.82;73.34;101666.94;5054718;28;20029;-68
2023/06/22 04:02:21;;;;;;;13.25;10.32;;;;;;;19.77;73.42;101670.56;5054401;28;20037;-68
2023/06/22 04:04:47;;;;;;;14.32;10.38;;;;;;;19.79;73.49;101667.88;5053794;28;20029;-68
2023/06/22 04:07:12;;;;;;;12.75;10.00;;;;;;;19.72;74.00;101666.19;5054633;28;20025;-68
2023/06/22 04:09:38;;;;;;;14.00;10.15;;;;;;;19.70;74.24;101668.00;5054655;28;20043;-68
2023/06/22 04:12:03;;;;;;;13.65;10.80;;;;;;;19.81;73.69;101667.84;5054412;28;20022;-68
2023/06/22 04:14:29;;;;;;;13.93;10.50;;;;;;;19.92;73.31;101665.91;5054454;28;20061;-69
2023/06/22 04:16:54;;;;;;;14.23;10.85;;;;;;;19.93;73.50;101671.25;5054318;28;20044;-68
2023/06/22 04:19:20;;;;;;;14.27;10.68;;;;;;;19.96;73.03;101668.53;5054426;28;20114;-68
2023/06/22 04:21:45;;;;;;;15.27;10.45;;;;;;;19.91;73.30;101666.78;5054304;28;20029;-68
2023/06/22 04:24:13;;;;;;;12.18;10.30;;;;;;;19.84;73.96;101662.44;5054433;28;20378;-68
2023/06/22 04:26:41;;;;;;;14.82;10.70;;;;;;;19.80;74.23;101666.97;5054166;28;20021;-68
2023/06/22 04:29:08;;;;;;;13.70;9.77;;;;;;;19.80;74.57;101666.09;5054047;28;20486;-68
2023/06/22 04:31:37;;;;;;;13.20;9.80;;;;;;;19.99;73.42;101663.09;5053789;28;20151;-68
2023/06/22 04:34:07;;;;;;;12.23;10.10;;;;;;;20.09;73.26;101674.59;5054255;28;20033;-68
2023/06/22 04:36:38;;;;;;;13.50;10.18;;;;;;;20.20;72.79;101669.91;5053826;28;20071;-68
2023/06/22 04:39:09;;;;;;;12.95;10.63;;;;;;;20.23;72.74;101669.88;5054035;28;20390;-68
2023/06/22 04:41:44;;;;;;;13.45;10.05;;;;;;;20.27;72.84;101678.78;5053900;28;20574;-68
2023/06/22 04:44:26;;;;;;;12.23;9.43;;;;;;;20.35;72.46;101676.84;5054027;28;20393;-68
2023/06/22 04:47:01;;;;;;;16.05;10.43;;;;;;;20.34;72.93;101676.84;5053873;28;20031;-68
2023/06/22 04:49:32;;;;;;;13.23;10.00;;;;;;;20.40;72.71;101672.28;5053844;28;20052;-68
2023/06/22 04:52:01;;;;;;;16.63;10.52;;;;;;;20.41;72.66;101673.16;5053645;28;20601;-69
2023/06/22 04:54:27;;;;;;;14.73;9.70;;;;;;;20.46;72.68;101677.53;5053879;28;20021;-69
2023/06/22 04:56:58;;;;;;;13.50;10.35;;;;;;;20.47;72.73;101675.75;5053581;28;20035;-69
2023/06/22 04:59:30;;;;;;;14.45;10.43;;;;;;;20.51;72.63;101672.13;5053710;28;20037;-69
2023/06/22 05:01:56;;;;;;;12.55;9.27;;;;;;;20.67;72.52;101684.38;5053293;28;20025;-68
2023/06/22 05:04:27;;;;;;;12.65;10.32;;;;;;;20.66;72.74;101679.03;5053424;28;20047;-68
2023/06/22 05:06:53;;;;;;;13.38;10.10;;;;;;;20.76;72.27;101673.47;5053635;28;20037;-68
2023/06/22 05:09:19;;;;;;;12.45;10.00;;;;;;;20.83;72.25;101671.56;5053510;28;20398;-68
2023/06/22 05:11:45;;;;;;;15.43;10.48;;;;;;;20.97;72.20;101673.97;5053467;28;20158;-68
2023/06/22 05:14:11;;;;;;;14.68;11.15;;;;;;;21.04;72.20;101664.91;5053494;28;20025;-68
2023/06/22 05:16:37;;;;;;;16.95;11.57;;;;;;;21.04;72.30;101670.28;5053142;28;20029;-68
2023/06/22 05:19:05;;;;;;;13.60;11.35;;;;;;;21.09;72.55;101675.56;5053287;28;20090;-68
2023/06/22 05:21:31;;;;;;;18.48;12.65;;;;;;;21.02;72.89;101677.47;5053396;28;20522;-68
2023/06/22 05:24:02;;;;;;;15.82;11.88;;;;;;;21.07;72.83;101678.28;5053228;28;20104;-68
2023/06/22 05:26:32;;;;;;;17.60;12.48;;;;;;;20.99;73.32;101678.44;5053516;28;20032;-68
2023/06/22 05:28:58;;;;;;;15.73;12.27;;;;;;;21.04;72.94;101680.16;5053050;28;20036;-69
2023/06/22 05:31:23;;;;;;;17.67;12.45;;;;;;;21.01;73.46;101679.28;5052897;28;20025;-69
2023/06/22 05:33:54;;;;;;;17.67;13.50;;;;;;;20.97;74.02;101682.03;5052869;28;20024;-69
2023/06/22 05:36:26;;;;;;;16.42;12.77;;;;;;;20.97;74.32;101679.34;5053031;28;20044;-69
2023/06/22 05:38:52;;;;;;;;;;;;;;;21.13;71.75;101669.22;5053939;28;20037;-68
2023/06/22 05:41:17;;;;;;;24.13;13.90;;;;;;;21.02;74.50;101666.72;5052972;28;19913;-69
2023/06/22 05:43:42;;;;;;;18.65;14.27;;;;;;;20.96;74.73;101677.59;5053192;28;20108;-69
2023/06/22 05:46:08;;;;;;;18.33;13.30;;;;;;;20.98;75.07;101673.06;5052854;28;20021;-68
2023/06/22 05:48:33;;;;;;;17.42;13.77;;;;;;;21.05;74.71;101665.78;5052885;28;20041;-69
2023/06/22 05:50:59;;;;;;;19.60;13.95;;;;;;;21.12;74.40;101672.81;5052926;28;20079;-68
2023/06/22 05:53:25;;;;;;;20.25;13.90;;;;;;;21.16;74.41;101675.41;5052879;28;20524;-69
2023/06/22 05:55:50;;;;;;;19.52;14.13;;;;;;;21.24;73.58;101665.41;5053081;28;20367;-69
2023/06/22 05:58:15;;;;;;;16.50;13.13;;;;;;;21.34;73.23;101659.84;5052825;28;20555;-69
2023/06/22 06:00:43;;;;;;;17.45;13.18;;;;;;;21.37;73.71;101666.06;5052685;28;20032;-69
2023/06/22 06:03:09;;;;;;;17.10;13.57;;;;;;;21.41;73.90;101662.41;5052777;28;20370;-68
2023/06/22 06:05:35;;;;;;;18.00;13.93;;;;;;;21.49;73.53;101664.91;5052632;28;20037;-69
2023/06/22 06:08:02;;;;;;;17.48;13.82;;;;;;;21.60;73.35;101675.44;5052794;28;20022;-69
2023/06/22 06:10:29;;;;;;;18.65;14.18;;;;;;;21.68;74.08;101670.78;5052685;28;20036;-69
2023/06/22 06:12:55;;;;;;;19.40;13.80;;;;;;;21.79;73.49;101668.72;5052678;28;20029;-68
2023/06/22 06:15:21;;;;;;;19.60;13.73;;;;;;;21.85;73.00;101667.72;5052548;28;20437;-69
2023/06/22 06:17:51;;;;;;;18.42;13.85;;;;;;;21.91;73.21;101662.16;5052913;28;20484;-69
2023/06/22 06:20:25;;;;;;;17.88;13.63;;;;;;;22.00;73.04;101660.13;5052702;28;20075;-69
2023/06/22 06:22:50;;;;;;;20.40;13.82;;;;;;;22.05;72.26;101654.66;5052567;28;20375;-69
2023/06/22 06:25:16;;;;;;;19.10;14.07;;;;;;;22.18;71.78;101661.56;5052623;28;20028;-69
2023/06/22 06:27:46;;;;;;;20.90;14.52;;;;;;;22.29;71.91;101663.09;5053879;28;20070;-69
2023/06/22 06:30:13;;;;;;;19.02;14.15;;;;;;;22.32;70.68;101666.59;5056475;28;20048;-69
2023/06/22 06:32:39;;;;;;;16.75;13.27;;;;;;;22.39;71.48;101662.81;5038673;28;20107;-69
2023/06/22 06:35:08;;;;;;;17.00;13.23;;;;;;;22.47;72.00;101668.91;5057309;28;20031;-69
2023/06/22 06:37:37;;;;;;;19.42;13.95;;;;;;;;;;5060571;28;20071;-69
2023/06/22 06:40:10;;;;;;;20.05;14.18;;;;;;;22.57;71.02;101661.47;5062741;28;20036;-69
2023/06/22 06:42:41;;;;;;;20.70;14.38;;;;;;;22.57;70.04;101657.88;5058677;28;20456;-69
2023/06/22 06:45:08;;;;;;;21.48;15.40;;;;;;;22.54;69.85;101656.16;5056489;28;20021;-69
2023/06/22 06:47:34;;;;;;;20.10;14.70;;;;;;;22.57;70.40;101656.09;5056440;28;20049;-69
2023/06/22 06:49:59;;;;;;;24.33;15.20;;;;;;;22.54;71.14;101653.47;5056108;28;20442;-69
2023/06/22 06:52:25;;;;;;;19.63;14.82;;;;;;;22.59;70.50;101664.13;5056115;28;20413;-69
2023/06/22 06:54:51;;;;;;;20.80;15.70;;;;;;;22.66;69.54;101658.53;5055850;28;20506;-69
2023/06/22 06:57:18;;;;;;;21.58;15.80;;;;;;;22.62;69.79;101655.97;5055828;28;20467;-69
2023/06/22 06:59:43;;;;;;;20.42;16.20;;;;;;;22.66;69.67;101654.97;5037993;28;20033;-68
2023/06/22 07:02:08;;;;;;;20.35;16.05;;;;;;;22.69;69.93;101658.44;5055512;28;20732;-69
2023/06/22 07:04:34;;;;;;;21.80;16.33;;;;;;;22.68;69.56;101656.69;5055794;28;20032;-69
2023/06/22 07:07:02;;;;;;;22.15;16.23;;;;;;;22.72;69.80;101654.78;5055871;28;20053;-69
2023/06/22 07:09:27;;;;;;;20.70;16.77;;;;;;;22.74;70.23;101661.91;5055486;28;20021;-69
2023/06/22 07:11:53;;;;;;;21.35;16.13;;;;;;;22.73;68.62;101652.03;5055655;28;20025;-69
2023/06/22 07:14:18;;;;;;;21.70;15.95;;;;;;;22.73;68.39;101652.03;5055909;28;20033;-69
2023/06/22 07:16:44;;;;;;;20.13;15.55;;;;;;;22.74;69.16;101650.25;5055592;28;20479;-69
2023/06/22 07:19:11;;;;;;;18.10;15.10;;;;;;;22.70;67.92;101654.84;5055658;28;20061;-69
2023/06/22 07:21:37;;;;;;;20.25;14.95;;;;;;;22.77;68.83;101655.53;5055496;28;20075;-68
2023/06/22 07:24:02;;;;;;;20.55;15.98;;;;;;;22.74;68.32;101650.25;5055264;28;20506;-68
2023/06/22 07:26:27;;;;;;;19.67;14.43;;;;;;;22.82;69.21;101647.34;5055683;28;20501;-67
2023/06/22 07:28:53;;;;;;;20.17;16.95;;;;;;;22.92;69.99;101651.59;5055336;28;20025;-68
2023/06/22 07:31:18;;;;;;;25.27;17.35;;;;;;;22.95;70.03;101643.41;5037323;28;20372;-66
2023/06/22 07:33:44;;;;;;;21.98;16.83;;;;;;;22.95;69.09;101651.50;5055138;28;20104;-68
2023/06/22 07:36:09;;;;;;;21.83;16.42;;;;;;;22.96;69.56;101651.47;5055198;28;20049;-68
2023/06/22 07:38:35;;;;;;;18.95;15.40;;;;;;;22.89;69.98;101640.84;5054689;28;20508;-66
2023/06/22 07:41:00;;;;;;;19.88;15.77;;;;;;;22.87;69.81;101642.69;5054951;28;20049;-66
2023/06/22 07:43:26;;;;;;;21.35;15.95;;;;;;;22.89;69.91;101633.66;5055324;28;20484;-67
2023/06/22 07:45:52;;;;;;;22.08;15.68;;;;;;;22.87;70.17;101635.53;5055128;28;20021;-66
2023/06/22 07:48:20;;;;;;;17.92;15.07;;;;;;;22.92;69.35;101625.53;5054980;28;20482;-66
2023/06/22 07:50:45;;;;;;;20.23;15.85;;;;;;;22.94;70.39;101620.97;5055090;28;20025;-66
2023/06/22 07:53:10;;;;;;;20.92;16.25;;;;;;;22.95;68.83;101608.38;5055022;28;20091;-65
2023/06/22 07:55:36;;;;;;;22.23;16.23;;;;;;;23.03;70.07;101608.16;5054950;28;20078;-65
2023/06/22 07:58:01;;;;;;;24.50;16.13;;;;;;;23.13;69.78;101599.75;5037072;28;20080;-66
2023/06/22 08:00:27;;;;;;;23.88;15.60;;;;;;;23.23;69.50;101600.38;5054822;28;20022;-67
2023/06/22 08:02:52;;;;;;;20.27;16.58;;;;;;;23.34;69.26;101598.25;5054475;28;20068;-67
2023/06/22 08:05:18;;;;;;;18.83;15.68;;;;;;;23.39;68.73;101587.31;5036861;28;20025;-66
2023/06/22 08:07:44;;;;;;;22.23;16.10;;;;;;;23.50;68.46;101585.16;5054494;28;20025;-67
2023/06/22 08:10:13;;;;;;;20.52;15.43;;;;;;;23.63;68.24;101575.72;5054751;28;20025;-67
2023/06/22 08:12:39;;;;;;;18.33;14.63;;;;;;;23.72;67.41;101567.41;5054604;28;20040;-67
2023/06/22 08:15:06;;;;;;;16.92;14.52;;;;;;;23.76;67.88;101560.06;5054521;28;20025;-67
2023/06/22 08:17:31;;;;;;;18.33;14.80;;;;;;;23.84;67.01;101560.69;5054288;28;20036;-66
2023/06/22 08:19:56;;;;;;;19.55;14.63;;;;;;;23.86;68.11;101553.44;5054521;28;20029;-69
2023/06/22 08:22:22;;;;;;;19.67;13.90;;;;;;;23.84;66.24;101546.31;5036700;28;20021;-69
2023/06/22 08:24:48;;;;;;;23.15;13.88;;;;;;;23.82;65.27;101551.78;5054677;28;20024;-69
2023/06/22 08:27:14;;;;;;;22.05;13.80;;;;;;;23.83;65.38;101552.66;5054494;28;20055;-69
2023/06/22 08:29:41;;;;;;;18.48;14.80;;;;;;;23.87;65.79;101549.81;5054305;28;20032;-69
2023/06/22 08:32:09;;;;;;;17.30;13.25;;;;;;;23.95;64.92;101555.84;5054111;28;20025;-69
2023/06/22 08:34:34;;;;;;;19.60;13.77;;;;;;;24.03;64.17;101543.91;5054216;28;20394;-69
2023/06/22 08:37:00;;;;;;;17.55;12.52;;;;;;;24.06;63.05;101547.34;5053827;28;20055;-69
2023/06/22 08:39:25;;;;;;;16.35;12.43;;;;;;;24.12;63.23;101551.69;5054117;28;20095;-69
2023/06/22 08:41:51;;;;;;;18.95;13.18;;;;;;;24.13;63.26;101546.22;5054212;28;20021;-69
2023/06/22 08:44:19;;;;;;;16.35;13.07;;;;;;;24.18;63.37;101551.47;5036096;28;20033;-69
2023/06/22 08:46:45;;;;;;;16.50;13.00;;;;;;;24.17;62.01;101553.28;5053859;28;20083;-69
2023/06/22 08:49:10;;;;;;;16.05;12.43;;;;;;;24.14;61.93;101553.38;5053781;28;20029;-69
2023/06/22 08:51:36;;;;;;;19.13;12.30;;;;;;;24.15;62.15;101552.47;5053353;28;20025;-69
2023/06/22 08:54:01;;;;;;;17.15;12.15;;;;;;;24.13;61.64;101539.94;5054451;28;20064;-69
2023/06/22 08:56:27;;;;;;;17.65;12.13;;;;;;;24.12;61.28;101544.47;5036640;28;20083;-69
2023/06/22 08:58:52;;;;;;;16.30;11.98;;;;;;;24.19;61.22;101546.00;5040607;28;20558;-69
2023/06/22 09:01:17;;;;;;;16.00;11.90;;;;;;;24.13;60.73;101540.81;5058937;28;20025;-69
2023/06/22 09:03:43;;;;;;;13.88;11.38;;;;;;;24.14;60.17;101541.69;5054605;28;20060;-69
2023/06/22 09:06:13;;;;;;;15.52;11.05;;;;;;;24.13;60.13;101540.81;5053433;28;20147;-69
2023/06/22 09:08:38;;;;;;;13.60;11.15;;;;;;;24.15;60.11;101538.97;5053517;28;20075;-69
2023/06/22 09:11:04;;;;;;;14.43;11.32;;;;;;;24.16;59.73;101540.72;5053168;28;20052;-69
2023/06/22 09:13:31;;;;;;;15.50;11.63;;;;;;;24.12;60.73;101530.97;5053506;28;20509;-69
2023/06/22 09:15:56;;;;;;;15.98;10.80;;;;;;;24.17;60.37;101528.09;5053647;28;20069;-69
2023/06/22 09:18:22;;;;;;;13.25;10.75;;;;;;;24.24;59.17;101532.34;5053370;28;20439;-69
2023/06/22 09:20:47;;;;;;;18.52;10.80;;;;;;;24.23;58.52;101528.75;5053235;28;20371;-69
2023/06/22 09:23:13;;;;;;;15.82;10.43;;;;;;;24.29;59.26;101526.78;5053247;28;20064;-69
2023/06/22 09:25:40;;;;;;;14.10;10.48;;;;;;;24.32;58.95;101523.97;5053300;28;20059;-69
2023/06/22 09:28:05;;;;;;;14.80;10.73;;;;;;;24.31;58.67;101525.78;5053425;28;20089;-68
2023/06/22 09:30:30;;;;;;;13.77;10.18;;;;;;;24.35;59.00;101523.84;5053175;28;20434;-69
2023/06/22 09:32:56;;;;;;;16.20;9.65;;;;;;;24.41;58.54;101523.66;5052906;28;20049;-69
2023/06/22 09:35:21;;;;;;;14.07;10.40;;;;;;;24.40;57.88;101525.47;5053279;28;20029;-69
2023/06/22 09:37:46;;;;;;;15.23;10.00;;;;;;;24.41;57.97;101526.34;5053007;28;20060;-69
2023/06/22 09:40:13;;;;;;;15.90;10.15;;;;;;;24.41;57.69;101524.56;5053054;28;20104;-69
2023/06/22 09:42:39;;;;;;;13.52;9.40;;;;;;;24.37;58.02;101525.63;5053136;28;20498;-69
2023/06/22 09:45:05;;;;;;;15.35;9.48;;;;;;;24.38;58.00;101526.50;5053231;28;20039;-69
2023/06/22 09:47:30;;;;;;;15.13;9.27;;;;;;;24.36;58.10;101525.63;5053071;28;20079;-69
2023/06/22 09:49:56;;;;;;;12.57;9.93;;;;;;;24.37;58.53;101522.00;5052755;28;20040;-69
2023/06/22 09:52:22;;;;;;;12.52;9.68;;;;;;;24.31;57.92;101512.28;5053161;28;20037;-69
2023/06/22 09:54:47;;;;;;;14.80;10.00;;;;;;;24.22;58.05;101512.59;5052841;28;20440;-69
2023/06/22 09:57:13;;;;;;;13.15;9.60;;;;;;;24.19;59.02;101510.88;5052849;28;20083;-69
2023/06/22 09:59:39;;;;;;;13.68;9.98;;;;;;;24.17;58.45;101506.50;5052840;28;20029;-69
2023/06/22 10:02:06;;;;;;;14.88;9.82;;;;;;;24.19;57.97;101510.00;5052755;28;20466;-69
2023/06/22 10:04:31;;;;;;;14.80;10.57;;;;;;;24.17;58.16;101501.97;5057156;28;20036;-69
2023/06/22 10:06:57;;;;;;;14.07;9.65;;;;;;;24.22;58.44;101509.91;5057018;28;20025;-69
2023/06/22 10:09:22;;;;;;;13.57;8.88;;;;;;;24.24;59.37;101508.06;5057027;28;20037;-69
2023/06/22 10:11:48;;;;;;;12.02;9.55;;;;;;;24.27;59.12;101510.63;5056899;28;20039;-69
2023/06/22 10:14:13;;;;;;;15.20;10.02;;;;;;;24.25;59.62;101504.41;5056780;28;20067;-69
2023/06/22 10:16:40;;;;;;;13.18;9.63;;;;;;;24.27;59.07;101509.75;5056774;28;20033;-69
2023/06/22 10:19:06;;;;;;;15.13;10.68;;;;;;;24.29;59.30;101508.75;5056416;28;20033;-69
2023/06/22 10:21:32;;;;;;;15.00;10.30;;;;;;;24.31;59.66;101506.00;5056634;28;20363;-69
2023/06/22 10:23:59;;;;;;;13.95;10.02;;;;;;;24.29;60.07;101499.78;5056842;28;20474;-69
2023/06/22 10:26:24;;;;;;;13.98;9.63;;;;;;;24.34;60.16;101504.06;5056552;28;20147;-69
2023/06/22 10:28:50;;;;;;;12.40;9.60;;;;;;;24.43;60.09;101498.38;5056500;28;20096;-69
2023/06/22 10:31:16;;;;;;;11.80;9.93;;;;;;;24.45;60.50;101501.00;5056282;28;20044;-69
2023/06/22 10:33:43;;;;;;;11.48;9.00;;;;;;;24.55;60.05;101505.16;5056098;28;20406;-69
2023/06/22 10:36:09;;;;;;;14.07;10.57;;;;;;;24.53;59.55;101504.31;5056305;28;20041;-69
2023/06/22 10:38:35;;;;;;;14.85;10.15;;;;;;;24.60;60.09;101513.97;5056423;28;20021;-69
2023/06/22 10:41:00;;;;;;;13.65;10.35;;;;;;;24.64;60.41;101512.91;5056414;28;20421;-69
2023/06/22 10:43:25;;;;;;;18.08;10.73;;;;;;;24.63;60.42;101519.25;5056305;28;20032;-69
2023/06/22 10:45:51;;;;;;;13.65;10.55;;;;;;;24.60;60.31;101530.19;5056485;28;20514;-69
2023/06/22 10:48:16;;;;;;;14.07;11.32;;;;;;;24.56;60.23;101542.03;5055973;28;20041;-69
2023/06/22 10:50:42;;;;;;;18.92;11.73;;;;;;;24.56;59.77;101542.03;5056063;28;20029;-69
2023/06/22 10:53:07;;;;;;;15.57;11.50;;;;;;;24.52;60.60;101536.78;5056155;28;20096;-69
2023/06/22 10:55:32;;;;;;;16.27;11.88;;;;;;;24.51;62.63;101535.03;5056969;28;20441;-69
2023/06/22 10:57:58;;;;;;;16.45;11.18;;;;;;;24.46;64.36;101546.00;5058623;28;20060;-70
2023/06/22 11:00:23;;;;;;;16.98;12.02;;;;;;;24.41;64.31;101539.88;5058324;28;20056;-70
2023/06/22 11:02:49;;;;;;;20.73;12.60;;;;;;;24.28;64.68;101546.59;5055605;28;20470;-71
2023/06/22 11:05:14;;;;;;;16.85;12.45;;;;;;;24.10;67.46;101531.94;5056192;28;20025;-71
2023/06/22 11:07:44;;;;;;;16.25;12.90;;;;;;;24.03;69.44;101538.50;5056117;28;20061;-70
2023/06/22 11:10:10;;;;;;;19.88;13.27;;;;;;;23.92;70.34;101542.44;5055218;28;20091;-70
2023/06/22 11:12:36;;;;;;;16.98;13.82;;;;;;;23.91;71.07;101551.47;5055756;28;20096;-69